• Join FlightAware (Why Join?)
  • Login
  • US Flag 
02:56PM EDT


 

Airport Tracker/Info


-or-


 

Live Flight TrackerFlight Track Log ✈ FDX1254 ✈ 18-Apr-2013 ✈ KPVD - KFWA

Flight Track Log - Related Links

Times and Time Zones

All times are in EDT time to prevent confusion due to time zone crossing. See the FDX1254 flight status page for this flight to view local times or setup timezone preferences in your user account.

Time Position Orientation Groundspeed Altitude Reporting Facility
EDT Latitude Longitude Course Direction KTS MPH feet Rate Location/Type
08:50PM 41.7580 -71.5990 315° West 271 312 7,400  Level FlightAware
08:51PM 41.7830 -71.6410 309° West 269 310 9,300 2,460 Climbing FlightAware
08:51PM 41.8080 -71.7070 297° West 321 369 10,300 1,260 Climbing FlightAware
08:52PM 41.8420 -71.7950 297° West 380 437 11,100 1,800 Climbing FlightAware
08:53PM 41.8710 -71.8670 298° West 388 447 12,700 2,580 Climbing FlightAware
08:54PM 41.9230 -71.9990 298° West 401 461 15,200 2,520 Climbing FlightAware
08:54PM 41.9570 -72.0850 298° West 404 465 16,900 2,400 Climbing FlightAware
08:55PM 41.9900 -72.1670 298° West 415 478 18,200 2,100 Climbing FlightAware
08:56PM 42.0350 -72.2860 297° West 423 487 20,100 1,860 Climbing FlightAware
08:57PM 42.0910 -72.4280 298° West 445 512 21,700 1,860 Climbing FlightAware
08:58PM 42.1270 -72.5200 298° West 448 516 23,100 2,100 Climbing FlightAware
08:58PM 42.1670 -72.6350 295° West 445 512 24,500 1,740 Climbing FlightAware
08:59PM 42.1740 -72.7850 274° West 455 524 25,900 1,500 Climbing FlightAware
09:00PM 42.1700 -72.9020 267° West 464 534 26,900 1,500 Climbing FlightAware
09:01PM 42.1650 -73.0270 267° West 468 539 28,100 1,800 Climbing FlightAware
09:01PM 42.1610 -73.1460 267° West 461 531 29,500 1,740 Climbing FlightAware
09:02PM 42.1570 -73.2780 268° West 465 535 30,600 1,680 Climbing FlightAware
09:03PM 42.1520 -73.3910 267° West 461 531 31,900 1,920 Climbing FlightAware
09:03PM 42.1514 -73.4136 268° West 462 532 32,100 1,920 Climbing FlightAware ADS-B
09:03PM 42.1476 -73.5104 267° West 458 527 33,200 1,560 Climbing FlightAware ADS-B
09:04PM 42.1434 -73.6163 267° West 465 535 34,000 1,380 Climbing FlightAware ADS-B
09:04PM 42.1399 -73.7058 267° West 464 534 34,800 1,620 Climbing FlightAware ADS-B
09:05PM 42.1363 -73.7947 267° West 462 532 35,700 1,500 Climbing FlightAware ADS-B
09:05PM 42.1323 -73.8895 267° West 464 534 36,400 1,260 Climbing FlightAware ADS-B
09:06PM 42.1285 -73.9757 267° West 464 534 37,100 1,380 Climbing FlightAware ADS-B
09:07PM 42.1243 -74.0735 267° West 460 529 37,900 1,200 Climbing FlightAware ADS-B
09:07PM 42.1205 -74.1613 267° West 457 526 38,400 1,200 Climbing FlightAware ADS-B
09:08PM 42.1159 -74.2660 267° West 454 522 39,300 1,260 Climbing FlightAware ADS-B
09:08PM 42.1116 -74.3582 266° West 450 518 39,900 660 Climbing FlightAware ADS-B
09:09PM 42.1075 -74.4451 266° West 452 520 40,000 60 Climbing FlightAware ADS-B
09:09PM 42.1031 -74.5346 266° West 452 520 40,000  Level FlightAware ADS-B
09:10PM 42.0990 -74.6213 266° West 451 519 40,000  Level FlightAware ADS-B
09:10PM 42.0947 -74.7083 266° West 453 521 40,000  Level FlightAware ADS-B
09:11PM 42.0904 -74.7926 266° West 454 522 40,000  Level FlightAware ADS-B
09:11PM 42.0859 -74.8828 266° West 455 524 40,000  Level FlightAware ADS-B
09:12PM 42.0814 -74.9701 266° West 455 524 40,000  Level FlightAware ADS-B
09:12PM 42.0768 -75.0605 266° West 454 522 40,000  Level FlightAware ADS-B
09:13PM 42.0723 -75.1445 266° West 453 521 40,000  Level FlightAware ADS-B
09:13PM 42.0675 -75.2344 266° West 452 520 40,000  Level FlightAware ADS-B
09:14PM 42.0653 -75.2678 265° West 453 521 40,000  Level FlightAware ADS-B
09:14PM 42.0567 -75.3172 257° West 453 521 40,000  Level FlightAware ADS-B
09:14PM 42.0439 -75.3619 249° West 456 525 40,000  Level FlightAware ADS-B
09:15PM 42.0145 -75.4373 242° Southwest 458 527 40,000  Level FlightAware ADS-B
09:15PM 41.9865 -75.5045 241° Southwest 459 528 40,000  Level FlightAware ADS-B
09:16PM 41.9617 -75.5887 248° West 457 526 40,000  Level FlightAware ADS-B
09:16PM 41.9551 -75.6415 260° West 454 522 40,000  Level FlightAware ADS-B
09:17PM 41.9485 -75.7539 266° West 454 522 40,000  Level FlightAware ADS-B
09:17PM 41.9437 -75.8409 266° West 455 524 40,000  Level FlightAware ADS-B
09:18PM 41.9391 -75.9255 266° West 455 524 40,000  Level FlightAware ADS-B
09:18PM 41.9343 -76.0128 266° West 456 525 40,000  Level FlightAware ADS-B
09:19PM 41.9294 -76.1000 266° West 455 524 40,000  Level FlightAware ADS-B
09:19PM 41.9243 -76.1901 266° West 454 522 40,000  Level FlightAware ADS-B
09:20PM 41.9194 -76.2743 266° West 453 521 40,000  Level FlightAware ADS-B
09:20PM 41.9140 -76.3637 265° West 451 519 40,000  Level FlightAware ADS-B
09:21PM 41.9084 -76.4581 265° West 448 516 40,000  Level FlightAware ADS-B
09:21PM 41.9040 -76.5270 265° West 448 516 40,000  Level FlightAware
09:21PM 41.9030 -76.5493 267° West 448 516 40,000  Level FlightAware ADS-B
09:22PM 41.8979 -76.6323 265° West 447 514 40,000  Level FlightAware ADS-B
09:22PM 41.8926 -76.7153 265° West 448 516 40,000  Level FlightAware ADS-B
09:23PM 41.8871 -76.8033 265° West 445 512 40,000  Level FlightAware ADS-B
09:23PM 41.8819 -76.8856 265° West 441 507 40,000  Level FlightAware ADS-B
09:24PM 41.8766 -76.9670 265° West 441 507 40,000  Level FlightAware ADS-B
09:25PM 41.8709 -77.0564 265° West 440 506 40,000  Level FlightAware ADS-B
09:25PM 41.8644 -77.1557 265° West 435 501 40,000  Level FlightAware ADS-B
09:26PM 41.8540 -77.3130 265° West 431 496 40,000  Level FlightAware
09:26PM 41.8510 -77.3558 265° West 434 499 40,000  Level FlightAware ADS-B
09:27PM 41.8460 -77.4350 265° West 429 494 40,000  Level FlightAware
09:28PM 41.8380 -77.5410 264° West 427 491 40,000  Level FlightAware
09:28PM 41.8300 -77.6540 265° West 425 489 40,000  Level FlightAware
09:29PM 41.8230 -77.7560 265° West 425 489 40,000  Level FlightAware
09:30PM 41.8150 -77.8690 265° West 424 488 40,000  Level FlightAware
09:30PM 41.8060 -77.9840 264° West 425 489 40,000  Level FlightAware
09:31PM 41.7990 -78.0860 265° West 426 490 40,000  Level FlightAware
09:32PM 41.7890 -78.2090 264° West 426 490 40,000  Level FlightAware
09:33PM 41.7800 -78.3140 263° West 426 490 40,000  Level FlightAware
09:33PM 41.7710 -78.4140 263° West 426 490 40,000  Level FlightAware
09:34PM 41.7610 -78.5340 264° West 425 489 40,000  Level FlightAware
09:35PM 41.7520 -78.6410 264° West 424 488 40,000  Level FlightAware
09:35PM 41.7410 -78.7560 263° West 425 489 40,000  Level FlightAware
09:36PM 41.7340 -78.8370 263° West 424 488 40,000  Level FlightAware
09:37PM 41.7210 -78.9770 263° West 424 488 40,000  Level FlightAware
09:37PM 41.7110 -79.0920 263° West 424 488 40,000  Level FlightAware
09:38PM 41.7020 -79.1910 263° West 424 488 40,000  Level FlightAware
09:39PM 41.6910 -79.3020 262° West 423 487 40,000  Level FlightAware
09:40PM 41.6800 -79.4160 263° West 421 484 40,000  Level FlightAware
09:40PM 41.6690 -79.5320 263° West 421 484 40,000  Level FlightAware
09:41PM 41.6590 -79.6380 263° West 423 487 40,000  Level FlightAware
09:42PM 41.6490 -79.7420 263° West 425 489 40,000  Level FlightAware
09:42PM 41.6380 -79.8560 263° West 423 487 40,000  Level FlightAware
09:43PM 41.6290 -79.9470 262° West 423 487 40,000  Level FlightAware
09:44PM 41.6170 -80.0660 262° West 422 486 40,000  Level FlightAware
09:44PM 41.6050 -80.1820 262° West 418 481 40,000  Level FlightAware
09:45PM 41.5940 -80.2840 262° West 416 479 40,000  Level FlightAware
09:46PM 41.5830 -80.3980 263° West 411 473 40,000  Level FlightAware
09:47PM 41.5720 -80.5000 262° West 406 467 40,000  Level FlightAware
09:47PM 41.5610 -80.5990 262° West 403 464 40,000  Level FlightAware
09:48PM 41.5500 -80.7070 262° West 400 460 40,000  Level FlightAware
09:49PM 41.5400 -80.8020 262° West 397 457 40,000  Level FlightAware
09:49PM 41.5270 -80.9150 261° West 394 453 40,000  Level FlightAware
09:50PM 41.5170 -81.0110 262° West 392 451 40,000  Level FlightAware
09:51PM 41.5070 -81.1040 262° West 389 448 40,000  Level FlightAware
09:51PM 41.4950 -81.2080 261° West 389 448 40,000  Level FlightAware
09:52PM 41.4840 -81.3060 262° West 389 448 40,000  Level FlightAware
09:53PM 41.4720 -81.4100 261° West 389 448 40,000  Level FlightAware
09:54PM 41.4620 -81.5050 262° West 389 448 40,000  Level FlightAware
09:54PM 41.4510 -81.5990 261° West 388 447 40,000  Level FlightAware
09:55PM 41.4380 -81.7080 261° West 387 445 40,000  Level FlightAware
09:56PM 41.4280 -81.7990 262° West 380 437 40,000  Level FlightAware
09:56PM 41.4160 -81.9030 261° West 377 434 40,000  Level FlightAware
09:57PM 41.4050 -81.9940 261° West 374 430 40,000  Level FlightAware
09:58PM 41.3940 -82.0850 261° West 373 429 40,000  Level FlightAware
09:58PM 41.3830 -82.1730 261° West 372 428 40,000  Level FlightAware
09:59PM 41.3710 -82.2790 261° West 371 427 40,000  Level FlightAware
10:00PM 41.3580 -82.3800 260° West 370 426 40,000  Level FlightAware
10:00PM 41.3480 -82.4590 260° West 368 423 40,000 -660 Level FlightAware
10:01PM 41.3360 -82.5610 261° West 370 426 39,100 -1,320 Descending FlightAware
10:02PM 41.3240 -82.6600 261° West 382 440 38,100 -1,440 Descending FlightAware
10:03PM 41.3120 -82.7580 261° West 386 444 37,200 -1,380 Descending FlightAware
10:03PM 41.3000 -82.8470 260° West 389 448 36,300 -1,380 Descending FlightAware
10:04PM 41.2870 -82.9470 260° West 396 456 35,300 -1,440 Descending FlightAware
10:05PM 41.2720 -83.0630 260° West 397 457 34,200 -1,080 Descending FlightAware
10:05PM 41.2630 -83.1390 261° West 388 447 34,000 -360 Descending FlightAware
10:06PM 41.2470 -83.2650 260° West 395 455 33,700 -960 Descending FlightAware
10:07PM 41.2340 -83.3620 260° West 406 467 32,500 -1,800 Descending FlightAware
10:08PM 41.2210 -83.4620 260° West 413 475 31,300 -1,800 Descending FlightAware
10:08PM 41.2050 -83.5770 260° West 419 482 30,000 -1,980 Descending FlightAware
10:09PM 41.1910 -83.6810 260° West 436 502 28,500 -2,880 Descending FlightAware
10:10PM 41.1590 -83.7800 247° West 429 494 26,200 -3,180 Descending FlightAware
10:10PM 41.1110 -83.8720 235° Southwest 417 480 24,000 -2,760 Descending FlightAware
10:11PM 41.0690 -83.9560 236° Southwest 404 465 22,300 -2,640 Descending FlightAware
10:12PM 41.0480 -84.0670 256° West 396 456 20,300 -2,640 Descending FlightAware
10:12PM 41.0420 -84.1610 265° West 382 440 18,600 -2,940 Descending FlightAware
10:13PM 41.0360 -84.2590 265° West 366 421 16,200 -3,360 Descending FlightAware
10:14PM 41.0310 -84.3490 266° West 357 411 13,900 -2,700 Descending FlightAware
10:15PM 41.0260 -84.4340 266° West 354 407 12,600 -1,800 Descending FlightAware
10:15PM 41.0200 -84.5310 265° West 337 388 11,400 -1,020 Descending FlightAware
10:16PM 41.0150 -84.6140 265° West 319 367 11,200 -120 Descending FlightAware
10:17PM 41.0110 -84.6850 266° West 270 311 11,300 60 Climbing FlightAware
10:17PM 41.0070 -84.7510 265° West 254 292 11,300  Level FlightAware
10:18PM 41.0030 -84.8150 265° West 253 291 11,300 -60 Level FlightAware
10:19PM 40.9970 -84.9000 265° West 253 291 11,200 -60 Descending FlightAware
10:20PM 40.9940 -84.9530 266° West 253 291 11,200  Level FlightAware
10:20PM 40.9900 -85.0050 264° West 253 291 11,200 -4,800 Level FlightAware
10:21PM 41.0628 -85.0825 264° West 247 284 2,900 -4,380 Descending Chicago Center
10:22PM 41.0325 -85.1231 225° Southwest 194 223 2,100 -660 Descending Chicago Center
10:24PM 41.0036 -85.1594 224° Southwest 165 190 1,600 -540 Descending Chicago Center
10:26PM 40.9667 -85.1833 246° West  Level FlightAware Approximate